createdAt,value
2018-06-04T00:00:07.645Z,19.14
2018-06-04T00:02:36.371Z,19.09
2018-06-04T00:05:05.116Z,19.08
2018-06-04T00:07:33.780Z,19.09
2018-06-04T00:10:02.523Z,19.10
2018-06-04T00:12:31.221Z,19.09
2018-06-04T00:14:59.901Z,19.09
2018-06-04T00:17:28.780Z,19.10
2018-06-04T00:19:57.547Z,19.07
2018-06-04T00:22:26.179Z,19.03
2018-06-04T00:24:54.900Z,19.01
2018-06-04T00:27:23.842Z,19.05
2018-06-04T00:29:52.499Z,18.99
2018-06-04T00:32:21.385Z,18.98
2018-06-04T00:34:50.033Z,18.91
2018-06-04T00:37:18.893Z,18.87
2018-06-04T00:39:47.610Z,18.88
2018-06-04T00:42:16.298Z,18.83
2018-06-04T00:44:45.110Z,18.79
2018-06-04T00:47:13.880Z,18.81
2018-06-04T00:49:42.624Z,18.75
2018-06-04T00:52:11.458Z,18.72
2018-06-04T00:54:40.182Z,18.72
2018-06-04T00:57:08.834Z,18.66
2018-06-04T00:59:38.372Z,18.66
2018-06-04T01:02:07.055Z,18.63
2018-06-04T01:04:35.743Z,18.71
2018-06-04T01:07:04.444Z,18.67
2018-06-04T01:09:33.207Z,18.67
2018-06-04T01:12:01.872Z,18.59
2018-06-04T01:14:30.572Z,18.56
2018-06-04T01:16:59.259Z,18.56
2018-06-04T01:19:27.907Z,18.53
2018-06-04T01:21:56.579Z,18.55
2018-06-04T01:24:25.273Z,18.53
2018-06-04T01:26:53.950Z,18.45
2018-06-04T01:29:22.624Z,18.47
2018-06-04T01:31:51.370Z,18.50
2018-06-04T01:34:20.056Z,18.48
2018-06-04T01:36:48.723Z,18.47
2018-06-04T01:39:17.387Z,18.46
2018-06-04T01:41:46.065Z,18.49
2018-06-04T01:44:14.750Z,18.47
2018-06-04T01:46:43.452Z,18.48
2018-06-04T01:49:12.131Z,18.44
2018-06-04T01:51:40.832Z,18.37
2018-06-04T01:54:09.478Z,18.34
2018-06-04T01:56:38.146Z,18.30
2018-06-04T01:59:06.870Z,18.24
2018-06-04T02:01:35.580Z,18.18
2018-06-04T02:04:04.333Z,18.09
2018-06-04T02:06:33.087Z,17.96
2018-06-04T02:09:01.814Z,17.91
2018-06-04T02:11:30.511Z,17.80
2018-06-04T02:13:59.229Z,17.74
2018-06-04T02:16:27.932Z,17.56
2018-06-04T02:18:56.620Z,17.61
2018-06-04T02:21:25.289Z,17.60
2018-06-04T02:23:53.962Z,17.61
2018-06-04T02:26:22.631Z,17.62
2018-06-04T02:28:51.306Z,17.64
2018-06-04T02:31:19.978Z,17.69
2018-06-04T02:33:48.728Z,17.74
2018-06-04T02:36:17.469Z,17.79
2018-06-04T02:38:46.128Z,17.75
2018-06-04T02:41:14.779Z,17.68
2018-06-04T02:43:43.519Z,17.57
2018-06-04T02:46:12.266Z,17.42
2018-06-04T02:48:40.958Z,17.35
2018-06-04T02:51:09.713Z,17.29
2018-06-04T02:53:38.401Z,17.18
2018-06-04T02:56:07.099Z,17.03
2018-06-04T02:58:35.791Z,16.99
2018-06-04T03:01:04.479Z,16.94
2018-06-04T03:03:33.164Z,16.88
2018-06-04T03:06:01.870Z,16.79
2018-06-04T03:08:30.627Z,16.71
2018-06-04T03:10:59.304Z,16.59
2018-06-04T03:13:27.930Z,16.60
2018-06-04T03:15:56.581Z,16.58
2018-06-04T03:18:25.241Z,16.55
2018-06-04T03:20:53.918Z,16.54
2018-06-04T03:23:22.591Z,16.57
2018-06-04T03:25:51.187Z,16.48
2018-06-04T03:28:19.857Z,16.44
2018-06-04T03:30:48.808Z,16.36
2018-06-04T03:33:17.489Z,16.31
2018-06-04T03:35:46.178Z,16.37
2018-06-04T03:38:14.856Z,16.28
2018-06-04T03:40:43.564Z,16.30
2018-06-04T03:43:12.285Z,16.23
2018-06-04T03:45:41.039Z,16.18
2018-06-04T03:48:09.752Z,16.18
2018-06-04T03:50:38.399Z,16.15
2018-06-04T03:53:07.082Z,16.17
2018-06-04T03:55:35.749Z,16.24
2018-06-04T03:58:04.488Z,16.30
2018-06-04T04:00:33.197Z,16.32
2018-06-04T04:03:02.000Z,16.27
2018-06-04T04:05:30.749Z,16.34
2018-06-04T04:07:59.470Z,16.45
2018-06-04T04:10:28.111Z,16.40
2018-06-04T04:12:56.800Z,16.51
2018-06-04T04:15:25.629Z,16.55
2018-06-04T04:17:54.370Z,16.65
2018-06-04T04:20:23.158Z,16.79
2018-06-04T04:22:51.862Z,16.87
2018-06-04T04:25:20.550Z,16.89
2018-06-04T04:27:49.316Z,16.92
2018-06-04T04:30:18.385Z,16.94
2018-06-04T04:32:47.137Z,17.05
2018-06-04T04:35:15.840Z,17.10
2018-06-04T04:37:45.542Z,17.20
2018-06-04T04:40:14.289Z,17.34
2018-06-04T04:42:43.013Z,17.38
2018-06-04T04:45:11.683Z,17.47
2018-06-04T04:47:40.459Z,17.48
2018-06-04T04:50:09.159Z,17.44
2018-06-04T04:52:37.833Z,17.49
2018-06-04T04:55:06.751Z,17.61
2018-06-04T04:57:35.451Z,17.61
2018-06-04T05:00:06.420Z,17.77
2018-06-04T05:02:35.142Z,17.83
2018-06-04T05:05:04.021Z,17.93
2018-06-04T05:07:32.733Z,18.05
2018-06-04T05:10:01.462Z,18.08
2018-06-04T05:12:30.120Z,18.22
2018-06-04T05:14:58.845Z,18.29
2018-06-04T05:17:27.550Z,18.38
2018-06-04T05:19:56.241Z,18.43
2018-06-04T05:22:24.949Z,18.52
2018-06-04T05:24:53.653Z,18.70
2018-06-04T05:27:22.439Z,18.84
2018-06-04T05:29:51.158Z,18.95
2018-06-04T05:32:19.908Z,18.98
2018-06-04T05:34:48.943Z,19.09
2018-06-04T05:37:17.605Z,19.19
2018-06-04T05:39:46.276Z,19.30
2018-06-04T05:42:14.961Z,19.32
2018-06-04T05:44:43.616Z,19.56
2018-06-04T05:47:12.297Z,19.76
2018-06-04T05:49:40.967Z,19.94
2018-06-04T05:52:09.686Z,20.18
2018-06-04T05:54:38.362Z,20.35
2018-06-04T05:57:07.007Z,20.51
2018-06-04T05:59:35.734Z,20.64
2018-06-04T06:02:04.498Z,20.73
2018-06-04T06:04:33.186Z,20.85
2018-06-04T06:07:01.859Z,21.09
2018-06-04T06:09:30.519Z,21.10
2018-06-04T06:11:59.236Z,21.30
2018-06-04T06:14:27.986Z,21.35
2018-06-04T06:16:56.691Z,21.25
2018-06-04T06:19:25.579Z,21.27
2018-06-04T06:21:58.349Z,21.23
2018-06-04T06:24:27.006Z,21.17
2018-06-04T06:26:55.690Z,21.16
2018-06-04T06:29:24.516Z,21.00
2018-06-04T06:31:53.149Z,21.09
2018-06-04T06:34:21.828Z,21.13
2018-06-04T06:36:50.486Z,21.19
2018-06-04T06:39:19.151Z,21.11
2018-06-04T06:41:47.865Z,21.18
2018-06-04T06:44:16.569Z,21.32
2018-06-04T06:46:45.247Z,21.34
2018-06-04T06:49:13.891Z,21.48
2018-06-04T06:51:42.649Z,21.53
2018-06-04T06:54:11.296Z,21.61
2018-06-04T06:56:40.020Z,21.69
2018-06-04T06:59:09.317Z,21.74
2018-06-04T07:01:38.051Z,21.86
2018-06-04T07:04:06.771Z,21.92
2018-06-04T07:06:35.444Z,21.87
2018-06-04T07:09:04.555Z,21.76
2018-06-04T07:11:33.273Z,21.83
2018-06-04T07:14:01.980Z,21.78
2018-06-04T07:16:30.651Z,21.83
2018-06-04T07:18:59.374Z,21.95
2018-06-04T07:21:28.149Z,21.87
2018-06-04T07:23:56.847Z,21.99
2018-06-04T07:26:25.581Z,22.11
2018-06-04T07:28:54.326Z,22.18
2018-06-04T07:31:22.991Z,22.14
2018-06-04T07:33:51.710Z,22.31
2018-06-04T07:36:20.343Z,22.25
2018-06-04T07:38:49.029Z,22.21
2018-06-04T07:41:17.696Z,22.32
2018-06-04T07:43:46.364Z,22.38
2018-06-04T07:46:15.958Z,22.53
2018-06-04T07:48:44.689Z,22.79
2018-06-04T07:51:13.444Z,23.06
2018-06-04T07:53:42.124Z,22.85
2018-06-04T07:56:10.835Z,22.95
2018-06-04T07:58:39.515Z,23.23
2018-06-04T08:01:08.200Z,23.24
2018-06-04T08:03:36.831Z,23.28
2018-06-04T08:06:05.645Z,23.30
2018-06-04T08:08:34.384Z,23.30
2018-06-04T08:11:03.096Z,23.26
2018-06-04T08:13:31.805Z,23.54
2018-06-04T08:16:00.545Z,23.87
2018-06-04T08:18:29.272Z,23.95
2018-06-04T08:20:57.951Z,24.05
2018-06-04T08:23:26.651Z,24.22
2018-06-04T08:25:55.357Z,24.56
2018-06-04T08:28:24.036Z,24.49
2018-06-04T08:30:52.753Z,23.97
2018-06-04T08:33:21.454Z,23.71
2018-06-04T08:35:50.143Z,24.01
2018-06-04T08:38:18.857Z,23.94
2018-06-04T08:40:47.606Z,24.18
2018-06-04T08:43:16.300Z,24.42
2018-06-04T08:45:45.048Z,24.35
2018-06-04T08:48:13.710Z,23.80
2018-06-04T08:50:42.314Z,23.71
2018-06-04T08:53:11.059Z,23.51
2018-06-04T08:55:39.791Z,23.64
2018-06-04T08:58:08.567Z,23.90
2018-06-04T09:00:37.235Z,24.13
2018-06-04T09:03:05.981Z,24.30
2018-06-04T09:05:34.693Z,24.34
2018-06-04T09:08:03.356Z,24.48
2018-06-04T09:10:32.017Z,24.65
2018-06-04T09:13:01.683Z,24.80
2018-06-04T09:15:30.335Z,24.51
2018-06-04T09:17:59.016Z,24.81
2018-06-04T09:20:27.677Z,25.09
2018-06-04T09:22:56.336Z,25.26
2018-06-04T09:25:25.019Z,25.33
2018-06-04T09:27:53.658Z,25.21
2018-06-04T09:30:22.344Z,25.07
2018-06-04T09:32:50.991Z,24.79
2018-06-04T09:35:19.695Z,24.79
2018-06-04T09:37:48.434Z,24.79
2018-06-04T09:40:17.092Z,25.04
2018-06-04T09:42:45.799Z,25.27
2018-06-04T09:45:14.485Z,25.45
2018-06-04T09:47:43.183Z,25.58
2018-06-04T09:50:11.831Z,25.76
2018-06-04T09:52:40.494Z,25.70
2018-06-04T09:55:09.164Z,25.37
2018-06-04T09:57:37.834Z,25.29
2018-06-04T10:00:07.790Z,25.40
2018-06-04T10:02:36.572Z,25.25
2018-06-04T10:05:05.246Z,25.48
2018-06-04T10:07:33.903Z,25.56
2018-06-04T10:10:02.665Z,25.77
2018-06-04T10:12:31.304Z,25.82
2018-06-04T10:14:59.948Z,25.81
2018-06-04T10:17:28.603Z,25.88
2018-06-04T10:19:57.266Z,26.27
2018-06-04T10:22:26.002Z,26.06
2018-06-04T10:24:54.649Z,26.08
2018-06-04T10:27:23.282Z,26.36
2018-06-04T10:29:51.964Z,26.36
2018-06-04T10:32:20.667Z,26.15
2018-06-04T10:34:50.005Z,25.99
2018-06-04T10:37:19.849Z,25.52
2018-06-04T10:39:48.513Z,25.28
2018-06-04T10:42:17.155Z,25.25
2018-06-04T10:44:45.956Z,25.55
2018-06-04T10:47:14.601Z,25.40
2018-06-04T10:49:43.894Z,25.70
2018-06-04T10:52:12.546Z,25.75
2018-06-04T10:54:41.203Z,25.94
2018-06-04T10:57:09.827Z,26.32
2018-06-04T10:59:38.747Z,26.43
2018-06-04T11:02:07.440Z,26.56
2018-06-04T11:04:36.063Z,27.08
2018-06-04T11:07:04.722Z,27.52
2018-06-04T11:09:33.379Z,28.16
2018-06-04T11:12:02.072Z,28.34
2018-06-04T11:14:30.715Z,28.30
2018-06-04T11:17:00.421Z,28.40
2018-06-04T11:19:29.119Z,28.91
2018-06-04T11:21:57.776Z,28.95
2018-06-04T11:24:26.452Z,29.56
2018-06-04T11:26:55.195Z,29.72
2018-06-04T11:29:23.896Z,30.29
2018-06-04T11:31:52.571Z,30.54
2018-06-04T11:34:21.206Z,30.93
2018-06-04T11:36:49.863Z,31.10
2018-06-04T11:39:18.497Z,31.12
2018-06-04T11:41:47.382Z,30.88
2018-06-04T11:44:16.029Z,30.98
2018-06-04T11:46:44.683Z,31.06
2018-06-04T11:49:13.399Z,31.59
2018-06-04T11:51:42.094Z,31.69
2018-06-04T11:54:10.842Z,31.83
2018-06-04T11:56:39.538Z,31.60
2018-06-04T11:59:08.152Z,31.62
2018-06-04T12:01:36.914Z,31.72
2018-06-04T12:04:05.574Z,31.97
2018-06-04T12:06:34.234Z,32.47
2018-06-04T12:09:02.966Z,32.34
2018-06-04T12:11:31.689Z,32.13
2018-06-04T12:14:00.339Z,31.98
2018-06-04T12:16:29.034Z,32.30
2018-06-04T12:18:57.675Z,32.50
2018-06-04T12:21:26.363Z,31.68
2018-06-04T12:23:55.078Z,31.53
2018-06-04T12:26:23.779Z,31.77
2018-06-04T12:28:52.482Z,32.06
2018-06-04T12:31:21.131Z,31.48
2018-06-04T12:33:49.895Z,31.50
2018-06-04T12:36:18.544Z,32.04
2018-06-04T12:38:47.235Z,32.52
2018-06-04T12:41:16.006Z,32.35
2018-06-04T12:43:44.794Z,31.43
2018-06-04T12:46:13.483Z,30.81
2018-06-04T12:48:42.167Z,31.10
2018-06-04T12:51:10.802Z,31.50
2018-06-04T12:53:39.523Z,31.71
2018-06-04T12:56:08.259Z,31.39
2018-06-04T12:58:36.902Z,32.33
2018-06-04T13:01:05.592Z,32.89
2018-06-04T13:03:34.286Z,32.90
2018-06-04T13:06:03.052Z,32.86
2018-06-04T13:08:31.756Z,33.25
2018-06-04T13:11:00.431Z,32.83
2018-06-04T13:13:29.071Z,32.81
2018-06-04T13:15:57.798Z,32.85
2018-06-04T13:18:26.535Z,32.00
2018-06-04T13:20:55.279Z,32.30
2018-06-04T13:23:23.971Z,31.84
2018-06-04T13:25:52.672Z,32.10
2018-06-04T13:28:21.299Z,32.44
2018-06-04T13:30:50.041Z,32.81
2018-06-04T13:33:18.722Z,32.91
2018-06-04T13:35:47.458Z,32.30
2018-06-04T13:38:16.133Z,31.81
2018-06-04T13:40:44.858Z,32.10
2018-06-04T13:43:13.520Z,30.74
2018-06-04T13:45:43.307Z,30.59
2018-06-04T13:48:13.124Z,29.98
2018-06-04T13:50:41.788Z,29.07
2018-06-04T13:53:10.511Z,28.84
2018-06-04T13:55:39.218Z,29.14
2018-06-04T13:58:07.864Z,29.00
2018-06-04T14:00:36.569Z,28.91
2018-06-04T14:03:05.266Z,28.59
2018-06-04T14:05:33.873Z,27.93
2018-06-04T14:08:02.519Z,27.42
2018-06-04T14:10:31.224Z,27.02
2018-06-04T14:12:59.928Z,26.63
2018-06-04T14:15:28.622Z,26.46
2018-06-04T14:17:57.311Z,26.51
2018-06-04T14:20:26.061Z,26.67
2018-06-04T14:22:55.279Z,26.84
2018-06-04T14:25:23.980Z,26.92
2018-06-04T14:27:52.625Z,27.32
2018-06-04T14:30:21.441Z,28.04
2018-06-04T14:32:50.145Z,29.01
2018-06-04T14:35:18.823Z,29.53
2018-06-04T14:37:47.549Z,29.96
2018-06-04T14:40:16.357Z,30.35
2018-06-04T14:42:45.390Z,30.76
2018-06-04T14:45:14.039Z,31.11
2018-06-04T14:47:42.691Z,31.09
2018-06-04T14:50:11.364Z,30.67
2018-06-04T14:52:39.986Z,30.20
2018-06-04T14:55:08.613Z,29.79
2018-06-04T14:57:37.300Z,29.33
2018-06-04T15:00:07.063Z,29.02
2018-06-04T15:02:35.756Z,29.22
2018-06-04T15:05:04.563Z,29.72
2018-06-04T15:07:33.242Z,30.36
2018-06-04T15:10:01.926Z,30.93
2018-06-04T15:12:30.590Z,31.26
2018-06-04T15:14:59.239Z,31.51
2018-06-04T15:17:28.022Z,31.21
2018-06-04T15:19:56.750Z,31.26
2018-06-04T15:22:25.475Z,30.61
2018-06-04T15:24:54.225Z,29.58
2018-06-04T15:27:22.982Z,29.61
2018-06-04T15:29:51.917Z,29.34
2018-06-04T15:32:20.681Z,29.28
2018-06-04T15:34:49.527Z,29.43
2018-06-04T15:37:18.524Z,29.88
2018-06-04T15:39:47.136Z,30.23
2018-06-04T15:42:15.780Z,30.03
2018-06-04T15:44:44.510Z,29.79
2018-06-04T15:47:13.229Z,29.71
2018-06-04T15:49:41.859Z,29.60
2018-06-04T15:52:10.527Z,28.93
2018-06-04T15:54:39.288Z,28.54
2018-06-04T15:57:07.931Z,28.17
2018-06-04T15:59:36.561Z,28.12
2018-06-04T16:02:05.330Z,28.16
2018-06-04T16:04:34.032Z,28.05
2018-06-04T16:07:02.655Z,27.80
2018-06-04T16:09:31.332Z,27.56
2018-06-04T16:12:00.049Z,27.51
2018-06-04T16:14:28.696Z,27.50
2018-06-04T16:16:57.403Z,27.72
2018-06-04T16:19:26.028Z,27.81
2018-06-04T16:21:54.785Z,27.93
2018-06-04T16:24:23.404Z,28.10
2018-06-04T16:26:52.105Z,27.99
2018-06-04T16:29:20.775Z,27.92
2018-06-04T16:31:49.417Z,27.69
2018-06-04T16:34:18.056Z,27.40
2018-06-04T16:36:46.677Z,27.18
2018-06-04T16:39:15.347Z,26.98
2018-06-04T16:41:44.744Z,26.75
2018-06-04T16:44:13.433Z,26.51
2018-06-04T16:46:42.075Z,26.25
2018-06-04T16:49:10.711Z,26.17
2018-06-04T16:51:39.392Z,26.00
2018-06-04T16:54:08.218Z,25.93
2018-06-04T16:56:36.884Z,25.84
2018-06-04T16:59:05.530Z,25.84
2018-06-04T17:01:34.302Z,25.66
2018-06-04T17:04:02.944Z,25.59
2018-06-04T17:06:32.639Z,25.34
2018-06-04T17:09:01.354Z,25.10
2018-06-04T17:11:30.061Z,25.12
2018-06-04T17:14:00.755Z,25.01
2018-06-04T17:16:30.152Z,24.94
2018-06-04T17:18:58.826Z,24.85
2018-06-04T17:21:27.550Z,24.92
2018-06-04T17:23:56.339Z,24.73
2018-06-04T17:26:25.048Z,24.47
2018-06-04T17:28:53.737Z,24.43
2018-06-04T17:31:22.431Z,24.32
2018-06-04T17:33:52.715Z,24.02
2018-06-04T17:36:21.491Z,24.17
2018-06-04T17:38:50.531Z,24.10
2018-06-04T17:41:19.241Z,24.01
2018-06-04T17:43:47.943Z,23.95
2018-06-04T17:46:16.901Z,23.92
2018-06-04T17:48:45.623Z,23.73
2018-06-04T17:51:14.727Z,23.43
2018-06-04T17:53:43.412Z,22.86
2018-06-04T17:56:12.054Z,22.69
2018-06-04T17:58:40.725Z,22.55
2018-06-04T18:01:09.484Z,22.49
2018-06-04T18:03:38.151Z,22.49
2018-06-04T18:06:06.866Z,22.35
2018-06-04T18:08:36.326Z,22.14
2018-06-04T18:11:05.326Z,21.99
2018-06-04T18:13:34.488Z,21.73
2018-06-04T18:16:03.221Z,21.59
2018-06-04T18:18:31.836Z,21.55
2018-06-04T18:21:00.557Z,21.65
2018-06-04T18:23:29.227Z,21.70
2018-06-04T18:25:59.018Z,21.79
2018-06-04T18:28:27.741Z,21.91
2018-06-04T18:30:56.483Z,21.87
2018-06-04T18:33:25.244Z,21.84
2018-06-04T18:35:53.983Z,21.79
2018-06-04T18:38:23.336Z,21.67
2018-06-04T18:40:52.127Z,21.60
2018-06-04T18:43:20.817Z,21.53
2018-06-04T18:45:49.716Z,21.45
2018-06-04T18:48:18.430Z,21.43
2018-06-04T18:50:48.242Z,21.37
2018-06-04T18:53:16.927Z,21.32
2018-06-04T18:55:45.649Z,21.32
2018-06-04T18:58:14.477Z,21.25
2018-06-04T19:00:43.170Z,21.30
2018-06-04T19:03:12.863Z,21.32
2018-06-04T19:05:45.284Z,21.21
2018-06-04T19:08:14.068Z,21.12
2018-06-04T19:10:42.714Z,21.10
2018-06-04T19:13:11.384Z,20.98
2018-06-04T19:15:40.222Z,20.82
2018-06-04T19:18:09.823Z,20.46
2018-06-04T19:20:40.134Z,20.41
2018-06-04T19:23:08.797Z,20.11
2018-06-04T19:25:38.078Z,19.94
2018-06-04T19:28:06.731Z,19.74
2018-06-04T19:30:35.438Z,19.54
2018-06-04T19:33:04.112Z,19.43
2018-06-04T19:35:32.836Z,19.52
2018-06-04T19:38:01.652Z,19.52
2018-06-04T19:40:30.325Z,19.50
2018-06-04T19:42:59.011Z,19.40
2018-06-04T19:45:27.654Z,19.32
2018-06-04T19:47:56.321Z,19.11
2018-06-04T19:50:24.948Z,19.06
2018-06-04T19:52:53.629Z,19.15
2018-06-04T19:55:22.334Z,19.26
2018-06-04T19:57:51.088Z,19.35
2018-06-04T20:00:19.900Z,19.30
2018-06-04T20:02:48.800Z,19.27
2018-06-04T20:05:17.425Z,19.26
2018-06-04T20:07:46.069Z,19.38
2018-06-04T20:10:14.718Z,19.44
2018-06-04T20:12:43.414Z,19.43
2018-06-04T20:15:12.220Z,19.50
2018-06-04T20:17:40.882Z,19.46
2018-06-04T20:20:09.928Z,19.35
2018-06-04T20:22:38.607Z,19.10
2018-06-04T20:25:07.419Z,18.97
2018-06-04T20:27:36.099Z,18.88
2018-06-04T20:30:05.797Z,18.86
2018-06-04T20:32:34.747Z,18.93
2018-06-04T20:35:03.508Z,18.85
2018-06-04T20:37:32.303Z,18.66
2018-06-04T20:40:01.070Z,18.55
2018-06-04T20:42:29.749Z,18.54
2018-06-04T20:44:58.424Z,18.51
2018-06-04T20:47:27.465Z,18.41
2018-06-04T20:49:56.121Z,18.48
2018-06-04T20:52:24.878Z,18.46
2018-06-04T20:54:53.639Z,18.43
2018-06-04T20:57:22.405Z,18.37
2018-06-04T20:59:51.024Z,18.48
2018-06-04T21:02:19.710Z,18.49
2018-06-04T21:04:48.402Z,18.45
2018-06-04T21:07:17.067Z,18.44
2018-06-04T21:09:50.286Z,18.48
2018-06-04T21:12:19.030Z,18.48
2018-06-04T21:14:47.725Z,18.56
2018-06-04T21:17:16.371Z,18.44
2018-06-04T21:19:45.064Z,18.43
2018-06-04T21:22:13.717Z,18.35
2018-06-04T21:24:42.407Z,18.39
2018-06-04T21:27:11.171Z,18.44
2018-06-04T21:29:39.819Z,18.48
2018-06-04T21:32:08.468Z,18.39
2018-06-04T21:34:37.129Z,18.42
2018-06-04T21:37:05.933Z,18.43
2018-06-04T21:39:34.861Z,18.35
2018-06-04T21:42:03.604Z,18.45
2018-06-04T21:44:32.241Z,18.43
2018-06-04T21:47:01.002Z,18.33
2018-06-04T21:49:29.633Z,18.21
2018-06-04T21:51:58.381Z,18.15
2018-06-04T21:54:28.108Z,17.89
2018-06-04T21:56:57.407Z,18.13
2018-06-04T21:59:26.035Z,18.11
2018-06-04T22:01:55.424Z,18.09
2018-06-04T22:04:24.147Z,18.10
2018-06-04T22:06:52.968Z,18.10
2018-06-04T22:09:21.695Z,18.14
2018-06-04T22:11:50.340Z,18.23
2018-06-04T22:14:18.995Z,18.24
2018-06-04T22:16:47.812Z,18.28
2018-06-04T22:19:17.428Z,18.20
2018-06-04T22:21:46.048Z,18.15
2018-06-04T22:24:14.693Z,18.11
2018-06-04T22:26:43.335Z,18.23
2018-06-04T22:29:12.039Z,18.19
2018-06-04T22:31:40.743Z,18.06
2018-06-04T22:34:09.400Z,18.24
2018-06-04T22:36:38.069Z,18.15
2018-06-04T22:39:09.264Z,18.03
2018-06-04T22:41:37.951Z,18.14
2018-06-04T22:44:06.753Z,18.12
2018-06-04T22:46:35.554Z,18.07
2018-06-04T22:49:07.682Z,17.90
2018-06-04T22:51:36.675Z,17.85
2018-06-04T22:54:05.315Z,17.85
2018-06-04T22:56:33.961Z,17.81
2018-06-04T22:59:02.586Z,17.80
2018-06-04T23:01:31.276Z,17.85
2018-06-04T23:03:59.941Z,17.87
2018-06-04T23:19:52.278Z,18.06
2018-06-04T23:22:20.942Z,17.76
2018-06-04T23:24:49.579Z,17.64
2018-06-04T23:27:18.195Z,17.53
2018-06-04T23:29:46.702Z,17.45
2018-06-04T23:32:15.293Z,17.36
2018-06-04T23:34:44.608Z,17.10
2018-06-04T23:37:13.283Z,17.22
2018-06-04T23:39:41.898Z,17.18
2018-06-04T23:42:10.546Z,17.08
2018-06-04T23:44:39.190Z,16.96
2018-06-04T23:47:07.918Z,16.96
2018-06-04T23:49:36.643Z,16.91
2018-06-04T23:52:05.336Z,16.89
2018-06-04T23:54:33.955Z,16.87
2018-06-04T23:57:02.612Z,16.84
2018-06-04T23:59:31.218Z,16.84
